Crystal Spring, PA (15536)

10:47 AM EDT on October 30, 2014 (GMT -0400)
Everett Area Middle/High School | Change Station
CLOSE
Current Station
Personal Weather Station
Location: Everett, PA
Elevation: 1142 ft
Nearby Weather Stations

Elev 1142 ft 40.01 °N, 78.37 °W | Updated 3 minutes ago

Overcast
Overcast
47.7 °F
Feels Like 46 °F
N
4.0
Wind Variable Wind from NE
Gusts 17.0 mph

Today
High -- | Low -- °F
--% Chance of Precip.
Yesterday
High -- | Low -- °F
Precip. -- in
7:39 AM 6:12 PM
Waxing Crescent, 44% visible
Pressure 30.07 in
Visibility 10.0 miles
Clouds Mostly Cloudy 2600 ft
Overcast 3200 ft
Windchill 46 °F
Dew Point 38 °F
Humidity 70%
Rainfall 0.00 in
Snow Depth Not available.
UV 1 out of 12
Pollen .10 out of 12
Air Quality Not available.
Flu Activity Not available.
SPECI KAOO 301425Z AUTO 32006KT 10SM BKN026 OVC032 08/03 A3007 RMK AO2 T00780028

More Conditions Fewer Conditions

Pressure 30.07 in
Visibility 10.0 miles
Clouds Mostly Cloudy 2600 ft
Overcast 3200 ft
Windchill 46 °F
Dew Point 38 °F
Humidity 70%
Rainfall 0.00 in
Snow Depth Not available.
UV 1 out of 12
Pollen .10 out of 12
Air Quality Not available.
Flu Activity Not available.
SPECI KAOO 301425Z AUTO 32006KT 10SM BKN026 OVC032 08/03 A3007 RMK AO2 T00780028

More Conditions Fewer Conditions

10-Day Weather Forecast

Almanac

Astronomy

Oct. 30, 2014 Rise Set
Actual Time
Civil Twilight
Nautical Twilight
Astronomical Twilight
Moon
Length of Visible Light
Length of Day
Tomorrow will be .
, % of the Moon is Illuminated

Today's Extremes

State Highs State Lows

Community

WunderPhotos

Upload Photos

1,766,379 photos uploaded!

WunderBlogs® & News

Nearby

Air Quality

  Air Quality AQ Index Pollutant
Not available.

Snow Depth

Station Depth Elevation

Earthquake Activity

City Distance Mag. Time & Date
Minimum magnitude displayed is 2.5.

Coastal Water Temperatures

Place Temperature

Nearby Weather Stations